METAR Data
IDs: Format: Raw Decoded Include TAF

Data at: 1327 UTC 10 Aug 2022

KO22 101315Z AUTO 00000KT 10SM CLR 15/10 A3005 RMK A01
KO22 101255Z AUTO 00000KT 10SM CLR 15/10 A3004 RMK A01
KO22 101235Z AUTO 00000KT 10SM CLR 15/10 A3004 RMK A01
KO22 101215Z AUTO 00000KT 10SM CLR 15/10 A3004 RMK A01
KO22 101155Z AUTO VRB03KT 10SM CLR 16/10 A3004 RMK A01
KO22 101135Z AUTO 00000KT 10SM CLR 16/10 A3004 RMK A01
KO22 101115Z AUTO 00000KT 10SM CLR 16/10 A3003 RMK A01
KO22 101055Z AUTO 00000KT 10SM CLR 16/10 A3003 RMK A01
KO22 101035Z AUTO 00000KT 10SM CLR 16/10 A3003 RMK A01
KO22 101015Z AUTO 00000KT 10SM CLR 17/10 A3003 RMK A01
KO22 100955Z AUTO 00000KT 10SM CLR 17/10 A3003 RMK A01
KO22 100935Z AUTO 00000KT 10SM CLR 17/10 A3003 RMK A01
KO22 100915Z AUTO 00000KT 10SM CLR 17/10 A3003 RMK A01
KO22 100855Z AUTO 00000KT 10SM CLR 17/10 A3003 RMK A01
KO22 100835Z AUTO 00000KT 10SM CLR 18/10 A3003 RMK A01
KO22 100815Z AUTO 00000KT 10SM FEW095 18/10 A3003 RMK A01
KO22 100755Z AUTO 00000KT 10SM BKN095 19/10 A3003 RMK A01
KO22 100735Z AUTO 26004KT 10SM CLR 19/10 A3003 RMK A01
KO22 100715Z AUTO 00000KT 10SM CLR 20/10 A3003 RMK A01
KO22 100655Z AUTO 25003KT 10SM SCT100 21/10 A3003 RMK A01
KO22 100635Z AUTO 00000KT 10SM BKN100 21/10 A3002 RMK A01
KO22 100615Z AUTO 00000KT 10SM FEW090 FEW110 21/09 A3002 RMK A01
KO22 100555Z AUTO 00000KT 10SM SCT090 21/09 A3002 RMK A01
KO22 100535Z AUTO 00000KT 10SM BKN090 22/09 A3003 RMK A01
KO22 100515Z AUTO 27003KT 10SM SCT090 23/09 A3002 RMK A01
KO22 100455Z AUTO 00000KT 10SM FEW090 23/09 A3002 RMK A01
KO22 100435Z AUTO 00000KT 10SM SCT095 23/09 A3001 RMK A01
KO22 100415Z AUTO 00000KT 10SM BKN100 24/08 A3000 RMK A01
KO22 100355Z AUTO VRB03KT 10SM BKN100 25/08 A3000 RMK A01
KO22 100335Z AUTO 00000KT 10SM BKN110 25/08 A2999 RMK A01
KO22 100315Z AUTO 28006KT 10SM SCT120 26/08 A2999 RMK A01
KO22 100255Z AUTO VRB03KT 10SM CLR 27/08 A2999 RMK A01
KO22 100235Z AUTO 26006KT 10SM FEW110 28/08 A2998 RMK A01
KO22 100215Z AUTO 25006KT 10SM CLR 30/09 A2998 RMK A01
KO22 100155Z AUTO 23005KT 10SM CLR 30/09 A2998 RMK A01
KO22 100135Z AUTO 22005KT 10SM CLR 30/08 A2998 RMK A01
KO22 100115Z AUTO 00000KT 10SM CLR 31/08 A2998 RMK A01
KO22 100055Z AUTO 22005KT 10SM CLR 31/08 A2998 RMK A01
KO22 100035Z AUTO 22006KT 10SM CLR 31/08 A2998 RMK A01
KO22 100015Z AUTO 26005G11KT 10SM CLR 31/08 A2998 RMK A01
KO22 092355Z AUTO 23007KT 10SM CLR 31/07 A2998 RMK A01
KO22 092335Z AUTO 22007KT 10SM CLR 32/08 A2997 RMK A01
KO22 092315Z AUTO VRB05G11KT 10SM CLR 32/08 A2998 RMK A01
KO22 092255Z AUTO 24007KT 10SM CLR 32/07 A2998 RMK A01
KO22 092235Z AUTO VRB04G11KT 9SM CLR 32/07 A2998 RMK A01
KO22 092215Z AUTO 25006G12KT 10SM CLR 32/07 A2998 RMK A01
KO22 092155Z AUTO 18006KT 10SM CLR 32/07 A2998 RMK A01
KO22 092135Z AUTO 20007KT 160V230 10SM CLR 33/08 A2999 RMK A01
KO22 092115Z AUTO VRB06KT 10SM CLR 33/08 A2999 RMK A01
KO22 092055Z AUTO VRB05G15KT 10SM CLR 32/07 A2999 RMK A01
KO22 092035Z AUTO 24009KT 10SM CLR 33/08 A3000 RMK A01
KO22 092015Z AUTO 18007KT 10SM CLR 32/07 A2999 RMK A01
KO22 091955Z AUTO VRB05G11KT 10SM CLR 32/07 A3000 RMK A01
KO22 091935Z AUTO VRB05KT 10SM CLR 32/08 A3000 RMK A01
KO22 091915Z AUTO 19004G10KT 10SM CLR 32/08 A3000 RMK A01
KO22 091855Z AUTO 19005G10KT 10SM CLR 31/08 A3000 RMK A01
KO22 091835Z AUTO 16006KT 10SM CLR 30/09 A3000 RMK A01
KO22 091815Z AUTO VRB04KT 10SM CLR 30/10 A3000 RMK A01
KO22 091755Z AUTO 18003KT 10SM CLR 30/10 A3000 RMK A01
KO22 091735Z AUTO VRB04KT 10SM CLR 29/10 A3000 RMK A01
KO22 091715Z AUTO 19004KT 10SM FEW110 29/10 A3000 RMK A01
KO22 091655Z AUTO 19003KT 10SM FEW085 BKN110 29/10 A3000 RMK A01
KO22 091635Z AUTO 00000KT 10SM BKN110 27/10 A3000 RMK A01
KO22 091615Z AUTO 00000KT 10SM CLR 26/10 A3000 RMK A01
KO22 091555Z AUTO 00000KT 10SM CLR 24/10 A3000 RMK A01
KO22 091535Z AUTO 24003KT 10SM SCT120 24/11 A3000 RMK A01
KO22 091515Z AUTO 00000KT 10SM BKN110 23/11 A3000 RMK A01
KO22 091455Z AUTO 00000KT 10SM BKN120 22/11 A2999 RMK A01
KO22 091415Z AUTO 00000KT 10SM SCT120 20/11 A2999 RMK A01
KO22 091355Z AUTO 00000KT 10SM FEW120 19/11 A2998 RMK A01
KO22 091335Z AUTO 00000KT 10SM SCT120 18/11 A2998 RMK A01
KO22 091315Z AUTO 00000KT 10SM FEW120 19/11 A2998 RMK A01
KO22 091255Z AUTO 00000KT 10SM BKN120 19/11 A2998 RMK A01
KO22 091235Z AUTO 00000KT 10SM BKN120 19/11 A2997 RMK A01
KO22 091215Z AUTO 00000KT 10SM OVC120 20/11 A2997 RMK A01
KO22 091155Z AUTO 00000KT 10SM BKN120 19/11 A2997 RMK A01
KO22 091135Z AUTO 00000KT 10SM BKN120 19/11 A2996 RMK A01
KO22 091115Z AUTO 00000KT 10SM BKN120 19/11 A2996 RMK A01
KO22 091055Z AUTO 00000KT 10SM FEW120 18/11 A2996 RMK A01
KO22 091035Z AUTO 00000KT 10SM CLR 18/11 A2996 RMK A01
KO22 091015Z AUTO 00000KT 10SM CLR 18/11 A2996 RMK A01
KO22 090955Z AUTO 10SM CLR 18/11 A2996 RMK A01
KO22 090935Z AUTO 00000KT 10SM CLR 19/11 A2997 RMK A01
KO22 090915Z AUTO 00000KT 10SM CLR 19/11 A2997 RMK A01
KO22 090855Z AUTO 00000KT 10SM CLR 19/11 A2997 RMK A01
KO22 090835Z AUTO 00000KT 10SM CLR 19/10 A2997 RMK A01
KO22 090815Z AUTO 00000KT 10SM CLR 19/10 A2997 RMK A01
KO22 090755Z AUTO 00000KT 10SM CLR 19/11 A2998 RMK A01
KO22 090735Z AUTO 00000KT 10SM CLR 20/11 A2998 RMK A01
KO22 090715Z AUTO 00000KT 10SM FEW036 20/11 A2998 RMK A01
KO22 090655Z AUTO 00000KT 10SM FEW035 20/10 A2998 RMK A01
KO22 090635Z AUTO 00000KT 10SM FEW035 21/10 A2998 RMK A01
KO22 090615Z AUTO 00000KT 10SM CLR 21/10 A2997 RMK A01
KO22 090555Z AUTO 00000KT 10SM CLR 21/10 A2997 RMK A01
KO22 090535Z AUTO 00000KT 10SM CLR 21/10 A2998 RMK A01
KO22 090515Z AUTO 00000KT 10SM CLR 22/10 A2998 RMK A01
KO22 090455Z AUTO 00000KT 10SM CLR 22/10 A2998 RMK A01
KO22 090435Z AUTO 00000KT 10SM CLR 24/10 A2998 RMK A01
KO22 090415Z AUTO 00000KT 10SM CLR 24/10 A2997 RMK A01
KO22 090355Z AUTO 00000KT 10SM CLR 25/09 A2997 RMK A01
KO22 090335Z AUTO 00000KT 10SM CLR 26/09 A2997 RMK A01
KO22 090315Z AUTO VRB04KT 10SM CLR 27/09 A2997 RMK A01
KO22 090255Z AUTO 00000KT 10SM CLR 28/09 A2997 RMK A01
KO22 090235Z AUTO 25004KT 10SM CLR 29/08 A2996 RMK A01
KO22 090215Z AUTO 00000KT 10SM CLR 30/08 A2996 RMK A01
KO22 090155Z AUTO 25006KT 10SM CLR 31/08 A2995 RMK A01
KO22 090135Z AUTO 25006KT 10SM CLR 32/08 A2996 RMK A01